sensor_id;sensor_type;location;lat;lon;timestamp;temperature;humidity
37310;DHT22;23195;47.744;7.358;2022-08-19T05:50:07;18.80;99.90
37310;DHT22;23195;47.744;7.358;2022-08-19T05:52:33;18.90;99.90
37310;DHT22;23195;47.744;7.358;2022-08-19T05:55:06;18.90;99.90
37310;DHT22;23195;47.744;7.358;2022-08-19T05:57:32;18.90;99.90
37310;DHT22;23195;47.744;7.358;2022-08-19T05:59:58;19.00;99.90
37310;DHT22;23195;47.744;7.358;2022-08-19T06:02:26;19.00;99.90
37310;DHT22;23195;47.744;7.358;2022-08-19T06:04:54;19.00;99.90
37310;DHT22;23195;47.744;7.358;2022-08-19T06:07:23;19.00;99.90
37310;DHT22;23195;47.744;7.358;2022-08-19T06:09:51;19.00;99.90
37310;DHT22;23195;47.744;7.358;2022-08-19T06:12:20;19.00;99.90
37310;DHT22;23195;47.744;7.358;2022-08-19T06:14:59;17.60;99.90
37310;DHT22;23195;47.744;7.358;2022-08-19T06:17:24;18.90;99.90
37310;DHT22;23195;47.744;7.358;2022-08-19T06:19:51;19.00;99.90
37310;DHT22;23195;47.744;7.358;2022-08-19T06:22:17;19.10;99.90
37310;DHT22;23195;47.744;7.358;2022-08-19T06:24:43;19.10;99.90
37310;DHT22;23195;47.744;7.358;2022-08-19T06:27:09;19.10;99.90
37310;DHT22;23195;47.744;7.358;2022-08-19T06:29:35;19.20;99.90
37310;DHT22;23195;47.744;7.358;2022-08-19T06:32:02;19.40;99.90
37310;DHT22;23195;47.744;7.358;2022-08-19T06:34:32;19.50;99.90
37310;DHT22;23195;47.744;7.358;2022-08-19T06:37:00;19.50;99.90
37310;DHT22;23195;47.744;7.358;2022-08-19T06:39:33;19.60;99.90
37310;DHT22;23195;47.744;7.358;2022-08-19T06:42:02;19.70;99.90
37310;DHT22;23195;47.744;7.358;2022-08-19T06:44:34;19.80;99.90
37310;DHT22;23195;47.744;7.358;2022-08-19T06:47:06;19.90;99.90
37310;DHT22;23195;47.744;7.358;2022-08-19T06:49:34;20.00;99.90
37310;DHT22;23195;47.744;7.358;2022-08-19T06:52:00;20.10;99.90
37310;DHT22;23195;47.744;7.358;2022-08-19T06:54:27;20.20;99.90
37310;DHT22;23195;47.744;7.358;2022-08-19T06:56:56;20.30;99.90
37310;DHT22;23195;47.744;7.358;2022-08-19T06:59:24;20.40;99.90
37310;DHT22;23195;47.744;7.358;2022-08-19T07:01:56;20.50;99.90
37310;DHT22;23195;47.744;7.358;2022-08-19T07:04:25;20.10;99.90
37310;DHT22;23195;47.744;7.358;2022-08-19T07:06:59;20.70;99.90
37310;DHT22;23195;47.744;7.358;2022-08-19T07:09:26;20.90;99.90
37310;DHT22;23195;47.744;7.358;2022-08-19T07:11:55;20.90;99.90
37310;DHT22;23195;47.744;7.358;2022-08-19T07:14:25;21.10;99.90
37310;DHT22;23195;47.744;7.358;2022-08-19T07:16:53;21.10;99.90
37310;DHT22;23195;47.744;7.358;2022-08-19T07:19:24;21.20;99.90
37310;DHT22;23195;47.744;7.358;2022-08-19T07:21:53;21.30;99.90
37310;DHT22;23195;47.744;7.358;2022-08-19T07:24:24;21.30;99.90
37310;DHT22;23195;47.744;7.358;2022-08-19T07:27:01;21.30;99.90
37310;DHT22;23195;47.744;7.358;2022-08-19T07:29:33;21.20;99.90
37310;DHT22;23195;47.744;7.358;2022-08-19T07:32:03;21.30;99.90
37310;DHT22;23195;47.744;7.358;2022-08-19T07:34:30;21.40;99.90
37310;DHT22;23195;47.744;7.358;2022-08-19T07:36:56;21.50;99.90
37310;DHT22;23195;47.744;7.358;2022-08-19T07:39:29;21.50;99.90
37310;DHT22;23195;47.744;7.358;2022-08-19T07:41:57;21.50;99.90
37310;DHT22;23195;47.744;7.358;2022-08-19T07:44:23;21.70;99.90
37310;DHT22;23195;47.744;7.358;2022-08-19T07:46:52;21.70;99.90
37310;DHT22;23195;47.744;7.358;2022-08-19T07:49:20;21.80;99.90
37310;DHT22;23195;47.744;7.358;2022-08-19T07:52:06;21.80;99.90
37310;DHT22;23195;47.744;7.358;2022-08-19T07:54:39;22.00;99.90
37310;DHT22;23195;47.744;7.358;2022-08-19T07:57:10;22.00;99.90
37310;DHT22;23195;47.744;7.358;2022-08-19T07:59:41;22.10;99.90
37310;DHT22;23195;47.744;7.358;2022-08-19T08:02:08;22.20;99.90
37310;DHT22;23195;47.744;7.358;2022-08-19T08:04:34;22.20;99.90
37310;DHT22;23195;47.744;7.358;2022-08-19T08:07:18;22.20;99.90
37310;DHT22;23195;47.744;7.358;2022-08-19T08:10:12;22.20;99.90
37310;DHT22;23195;47.744;7.358;2022-08-19T08:12:39;22.20;99.90
37310;DHT22;23195;47.744;7.358;2022-08-19T08:15:10;22.20;99.90
37310;DHT22;23195;47.744;7.358;2022-08-19T08:17:42;22.20;99.90
37310;DHT22;23195;47.744;7.358;2022-08-19T08:20:09;22.30;99.90
37310;DHT22;23195;47.744;7.358;2022-08-19T08:22:35;22.30;99.90
37310;DHT22;23195;47.744;7.358;2022-08-19T08:25:21;22.40;99.90
37310;DHT22;23195;47.744;7.358;2022-08-19T08:27:50;22.70;99.90
37310;DHT22;23195;47.744;7.358;2022-08-19T08:30:21;22.90;99.90
37310;DHT22;23195;47.744;7.358;2022-08-19T08:32:51;23.10;99.90
37310;DHT22;23195;47.744;7.358;2022-08-19T08:35:20;23.30;99.90
37310;DHT22;23195;47.744;7.358;2022-08-19T08:37:47;23.30;99.90
37310;DHT22;23195;47.744;7.358;2022-08-19T08:40:42;23.50;99.90
37310;DHT22;23195;47.744;7.358;2022-08-19T08:43:35;23.50;99.90
37310;DHT22;23195;47.744;7.358;2022-08-19T08:46:06;23.50;99.90
37310;DHT22;23195;47.744;7.358;2022-08-19T08:48:42;23.80;99.90
37310;DHT22;23195;47.744;7.358;2022-08-19T08:51:16;24.00;99.90
37310;DHT22;23195;47.744;7.358;2022-08-19T08:53:45;24.40;99.90
37310;DHT22;23195;47.744;7.358;2022-08-19T08:56:12;24.80;99.90
37310;DHT22;23195;47.744;7.358;2022-08-19T08:58:51;25.00;99.90
37310;DHT22;23195;47.744;7.358;2022-08-19T09:01:20;25.20;99.90
37310;DHT22;23195;47.744;7.358;2022-08-19T09:03:46;25.40;99.90
37310;DHT22;23195;47.744;7.358;2022-08-19T09:09:05;25.30;99.90
37310;DHT22;23195;47.744;7.358;2022-08-19T09:16:44;24.30;99.90
37310;DHT22;23195;47.744;7.358;2022-08-19T09:19:10;24.10;99.90
37310;DHT22;23195;47.744;7.358;2022-08-19T09:21:36;24.10;99.90
37310;DHT22;23195;47.744;7.358;2022-08-19T09:24:04;24.10;99.90
37310;DHT22;23195;47.744;7.358;2022-08-19T09:26:38;24.20;99.90
37310;DHT22;23195;47.744;7.358;2022-08-19T09:29:03;24.10;99.90
37310;DHT22;23195;47.744;7.358;2022-08-19T09:31:32;24.00;99.90
37310;DHT22;23195;47.744;7.358;2022-08-19T09:33:58;24.00;99.90
37310;DHT22;23195;47.744;7.358;2022-08-19T09:36:26;24.00;99.90
37310;DHT22;23195;47.744;7.358;2022-08-19T09:39:03;23.90;99.90
37310;DHT22;23195;47.744;7.358;2022-08-19T09:41:29;23.70;99.90
37310;DHT22;23195;47.744;7.358;2022-08-19T09:43:56;23.60;99.90
37310;DHT22;23195;47.744;7.358;2022-08-19T09:46:25;23.70;99.90
37310;DHT22;23195;47.744;7.358;2022-08-19T09:48:51;23.60;99.90
37310;DHT22;23195;47.744;7.358;2022-08-19T09:51:23;23.30;99.90
37310;DHT22;23195;47.744;7.358;2022-08-19T09:53:54;23.20;99.90
37310;DHT22;23195;47.744;7.358;2022-08-19T09:56:21;23.20;99.90
37310;DHT22;23195;47.744;7.358;2022-08-19T09:58:53;23.30;99.90
37310;DHT22;23195;47.744;7.358;2022-08-19T10:01:29;23.20;99.90
37310;DHT22;23195;47.744;7.358;2022-08-19T10:04:00;23.10;99.90
37310;DHT22;23195;47.744;7.358;2022-08-19T10:06:34;23.10;99.90
37310;DHT22;23195;47.744;7.358;2022-08-19T10:09:51;23.20;99.90
37310;DHT22;23195;47.744;7.358;2022-08-19T10:12:26;23.60;99.90
37310;DHT22;23195;47.744;7.358;2022-08-19T10:14:52;23.30;99.90
37310;DHT22;23195;47.744;7.358;2022-08-19T10:17:20;23.60;99.90
37310;DHT22;23195;47.744;7.358;2022-08-19T10:19:45;23.80;99.90
37310;DHT22;23195;47.744;7.358;2022-08-19T10:22:12;24.00;99.90
37310;DHT22;23195;47.744;7.358;2022-08-19T10:24:40;24.20;99.90
37310;DHT22;23195;47.744;7.358;2022-08-19T10:27:06;24.50;99.90
37310;DHT22;23195;47.744;7.358;2022-08-19T10:29:32;24.60;99.90
37310;DHT22;23195;47.744;7.358;2022-08-19T10:32:05;24.70;99.90
37310;DHT22;23195;47.744;7.358;2022-08-19T10:34:32;24.80;99.90
37310;DHT22;23195;47.744;7.358;2022-08-19T10:36:59;24.90;99.90
37310;DHT22;23195;47.744;7.358;2022-08-19T10:39:26;24.90;99.90
37310;DHT22;23195;47.744;7.358;2022-08-19T10:41:54;25.00;99.90
37310;DHT22;23195;47.744;7.358;2022-08-19T10:44:21;25.10;99.90
37310;DHT22;23195;47.744;7.358;2022-08-19T10:46:48;25.20;99.90
37310;DHT22;23195;47.744;7.358;2022-08-19T10:49:14;25.20;99.90
37310;DHT22;23195;47.744;7.358;2022-08-19T10:51:40;24.80;99.90
37310;DHT22;23195;47.744;7.358;2022-08-19T10:54:25;24.60;99.90
37310;DHT22;23195;47.744;7.358;2022-08-19T10:57:11;24.50;99.90
37310;DHT22;23195;47.744;7.358;2022-08-19T10:59:37;24.40;99.90
37310;DHT22;23195;47.744;7.358;2022-08-19T11:02:06;24.50;99.90
37310;DHT22;23195;47.744;7.358;2022-08-19T11:04:32;24.50;99.90
37310;DHT22;23195;47.744;7.358;2022-08-19T11:06:59;24.50;99.90
37310;DHT22;23195;47.744;7.358;2022-08-19T11:09:26;24.60;99.90
37310;DHT22;23195;47.744;7.358;2022-08-19T11:11:57;24.70;99.90
37310;DHT22;23195;47.744;7.358;2022-08-19T11:14:23;24.80;99.90
37310;DHT22;23195;47.744;7.358;2022-08-19T11:16:52;24.90;99.90
37310;DHT22;23195;47.744;7.358;2022-08-19T11:19:22;25.00;99.90
37310;DHT22;23195;47.744;7.358;2022-08-19T11:21:50;25.30;99.90
37310;DHT22;23195;47.744;7.358;2022-08-19T11:24:22;25.50;99.90
37310;DHT22;23195;47.744;7.358;2022-08-19T11:26:53;25.80;99.90
37310;DHT22;23195;47.744;7.358;2022-08-19T11:29:23;25.60;99.90
37310;DHT22;23195;47.744;7.358;2022-08-19T11:31:53;26.20;99.90
37310;DHT22;23195;47.744;7.358;2022-08-19T11:34:24;26.50;99.90
37310;DHT22;23195;47.744;7.358;2022-08-19T11:36:52;26.70;99.90
37310;DHT22;23195;47.744;7.358;2022-08-19T11:39:22;27.00;99.90
37310;DHT22;23195;47.744;7.358;2022-08-19T11:41:48;27.10;99.90
37310;DHT22;23195;47.744;7.358;2022-08-19T11:44:14;27.10;99.90
37310;DHT22;23195;47.744;7.358;2022-08-19T11:46:42;27.10;99.90
37310;DHT22;23195;47.744;7.358;2022-08-19T11:49:12;27.00;99.90
37310;DHT22;23195;47.744;7.358;2022-08-19T11:51:38;26.90;99.90
37310;DHT22;23195;47.744;7.358;2022-08-19T11:54:05;26.60;99.90
37310;DHT22;23195;47.744;7.358;2022-08-19T11:56:31;26.30;99.90
37310;DHT22;23195;47.744;7.358;2022-08-19T11:58:57;25.90;99.90
37310;DHT22;23195;47.744;7.358;2022-08-19T12:01:25;25.60;99.90
37310;DHT22;23195;47.744;7.358;2022-08-19T12:03:53;25.40;99.90
37310;DHT22;23195;47.744;7.358;2022-08-19T12:06:28;25.10;99.90
37310;DHT22;23195;47.744;7.358;2022-08-19T12:08:56;24.90;99.90
37310;DHT22;23195;47.744;7.358;2022-08-19T12:11:23;24.70;99.90
37310;DHT22;23195;47.744;7.358;2022-08-19T12:13:49;24.70;99.90
37310;DHT22;23195;47.744;7.358;2022-08-19T12:16:21;24.70;99.90
37310;DHT22;23195;47.744;7.358;2022-08-19T12:18:49;24.70;99.90
37310;DHT22;23195;47.744;7.358;2022-08-19T12:21:22;24.80;99.90
37310;DHT22;23195;47.744;7.358;2022-08-19T12:23:49;24.80;99.90
37310;DHT22;23195;47.744;7.358;2022-08-19T12:26:16;24.80;99.90
37310;DHT22;23195;47.744;7.358;2022-08-19T12:28:42;24.70;99.90
37310;DHT22;23195;47.744;7.358;2022-08-19T12:31:09;24.60;99.90
37310;DHT22;23195;47.744;7.358;2022-08-19T12:33:38;24.60;99.90
37310;DHT22;23195;47.744;7.358;2022-08-19T12:36:06;24.50;99.90
37310;DHT22;23195;47.744;7.358;2022-08-19T12:38:33;24.60;99.90
37310;DHT22;23195;47.744;7.358;2022-08-19T12:41:00;24.50;99.90
37310;DHT22;23195;47.744;7.358;2022-08-19T12:43:26;24.30;99.90
37310;DHT22;23195;47.744;7.358;2022-08-19T12:45:54;24.70;99.90
37310;DHT22;23195;47.744;7.358;2022-08-19T12:48:20;24.40;99.90
37310;DHT22;23195;47.744;7.358;2022-08-19T12:50:46;24.40;99.90
37310;DHT22;23195;47.744;7.358;2022-08-19T12:53:13;24.40;99.90
37310;DHT22;23195;47.744;7.358;2022-08-19T12:55:39;24.30;99.90
37310;DHT22;23195;47.744;7.358;2022-08-19T12:58:05;23.20;99.90
37310;DHT22;23195;47.744;7.358;2022-08-19T13:00:31;24.40;99.90
37310;DHT22;23195;47.744;7.358;2022-08-19T13:02:58;24.40;99.90
37310;DHT22;23195;47.744;7.358;2022-08-19T13:05:27;24.50;99.90
37310;DHT22;23195;47.744;7.358;2022-08-19T13:07:55;24.40;99.90
37310;DHT22;23195;47.744;7.358;2022-08-19T13:10:24;24.30;99.90
37310;DHT22;23195;47.744;7.358;2022-08-19T13:12:51;24.20;99.90
37310;DHT22;23195;47.744;7.358;2022-08-19T13:15:19;24.20;99.90
37310;DHT22;23195;47.744;7.358;2022-08-19T13:17:50;24.20;99.90
37310;DHT22;23195;47.744;7.358;2022-08-19T13:20:19;24.20;99.90
37310;DHT22;23195;47.744;7.358;2022-08-19T13:22:46;22.70;99.90
37310;DHT22;23195;47.744;7.358;2022-08-19T13:25:15;24.00;99.90
37310;DHT22;23195;47.744;7.358;2022-08-19T13:27:43;24.00;99.90
37310;DHT22;23195;47.744;7.358;2022-08-19T13:30:11;24.00;99.90
37310;DHT22;23195;47.744;7.358;2022-08-19T13:32:55;24.00;99.90
37310;DHT22;23195;47.744;7.358;2022-08-19T13:35:44;24.10;99.90
37310;DHT22;23195;47.744;7.358;2022-08-19T13:38:10;23.90;99.90
37310;DHT22;23195;47.744;7.358;2022-08-19T13:40:40;24.00;99.90
37310;DHT22;23195;47.744;7.358;2022-08-19T13:43:07;24.20;99.90
37310;DHT22;23195;47.744;7.358;2022-08-19T13:45:39;24.20;99.90
37310;DHT22;23195;47.744;7.358;2022-08-19T13:48:10;24.00;99.90
37310;DHT22;23195;47.744;7.358;2022-08-19T13:50:41;23.80;99.90
37310;DHT22;23195;47.744;7.358;2022-08-19T13:53:09;23.80;99.90
37310;DHT22;23195;47.744;7.358;2022-08-19T13:55:38;24.00;99.90
37310;DHT22;23195;47.744;7.358;2022-08-19T13:58:05;24.10;99.90
37310;DHT22;23195;47.744;7.358;2022-08-19T14:00:35;24.20;99.90
37310;DHT22;23195;47.744;7.358;2022-08-19T14:03:03;24.20;99.90
37310;DHT22;23195;47.744;7.358;2022-08-19T14:05:30;24.20;99.90
37310;DHT22;23195;47.744;7.358;2022-08-19T14:07:56;24.10;99.90
37310;DHT22;23195;47.744;7.358;2022-08-19T14:10:24;24.10;99.90
37310;DHT22;23195;47.744;7.358;2022-08-19T14:13:01;23.90;99.90
37310;DHT22;23195;47.744;7.358;2022-08-19T14:15:28;23.80;99.90
37310;DHT22;23195;47.744;7.358;2022-08-19T14:17:55;23.70;99.90
37310;DHT22;23195;47.744;7.358;2022-08-19T14:20:21;23.50;99.90
37310;DHT22;23195;47.744;7.358;2022-08-19T14:22:51;23.30;99.90
37310;DHT22;23195;47.744;7.358;2022-08-19T14:25:20;23.20;99.90
37310;DHT22;23195;47.744;7.358;2022-08-19T14:27:47;23.20;99.90
37310;DHT22;23195;47.744;7.358;2022-08-19T14:30:16;22.80;99.90
37310;DHT22;23195;47.744;7.358;2022-08-19T14:32:42;23.20;99.90
37310;DHT22;23195;47.744;7.358;2022-08-19T14:35:12;23.20;99.90
37310;DHT22;23195;47.744;7.358;2022-08-19T14:37:44;23.20;99.90
37310;DHT22;23195;47.744;7.358;2022-08-19T14:40:13;23.20;99.90
37310;DHT22;23195;47.744;7.358;2022-08-19T14:42:39;23.10;99.90
37310;DHT22;23195;47.744;7.358;2022-08-19T14:45:05;23.20;99.90
37310;DHT22;23195;47.744;7.358;2022-08-19T14:47:31;23.30;99.90
37310;DHT22;23195;47.744;7.358;2022-08-19T14:50:00;23.40;99.90
37310;DHT22;23195;47.744;7.358;2022-08-19T14:52:26;23.30;99.90
37310;DHT22;23195;47.744;7.358;2022-08-19T14:54:52;23.50;99.90
37310;DHT22;23195;47.744;7.358;2022-08-19T14:57:18;23.60;99.90
37310;DHT22;23195;47.744;7.358;2022-08-19T14:59:45;23.60;99.90
37310;DHT22;23195;47.744;7.358;2022-08-19T15:02:11;23.70;99.90
37310;DHT22;23195;47.744;7.358;2022-08-19T15:04:38;23.80;99.90
37310;DHT22;23195;47.744;7.358;2022-08-19T15:07:04;23.80;99.90
37310;DHT22;23195;47.744;7.358;2022-08-19T15:09:33;24.20;99.90
37310;DHT22;23195;47.744;7.358;2022-08-19T15:12:00;23.80;99.90
37310;DHT22;23195;47.744;7.358;2022-08-19T15:14:27;23.80;99.90
37310;DHT22;23195;47.744;7.358;2022-08-19T15:16:59;23.70;99.90
37310;DHT22;23195;47.744;7.358;2022-08-19T15:19:25;23.60;99.90
37310;DHT22;23195;47.744;7.358;2022-08-19T15:21:51;23.80;99.90
37310;DHT22;23195;47.744;7.358;2022-08-19T15:24:23;23.70;99.90
37310;DHT22;23195;47.744;7.358;2022-08-19T15:26:54;23.60;99.90
37310;DHT22;23195;47.744;7.358;2022-08-19T15:29:21;23.50;99.90
37310;DHT22;23195;47.744;7.358;2022-08-19T15:31:50;23.40;99.90
37310;DHT22;23195;47.744;7.358;2022-08-19T15:34:16;23.50;99.90
37310;DHT22;23195;47.744;7.358;2022-08-19T15:36:42;23.50;99.90
37310;DHT22;23195;47.744;7.358;2022-08-19T15:39:08;23.50;99.90
37310;DHT22;23195;47.744;7.358;2022-08-19T15:41:35;23.40;99.90
37310;DHT22;23195;47.744;7.358;2022-08-19T15:44:05;23.50;99.90
37310;DHT22;23195;47.744;7.358;2022-08-19T15:46:37;23.60;99.90
37310;DHT22;23195;47.744;7.358;2022-08-19T15:49:11;23.60;99.90
37310;DHT22;23195;47.744;7.358;2022-08-19T15:51:41;23.60;99.90
37310;DHT22;23195;47.744;7.358;2022-08-19T15:54:10;23.60;99.90
37310;DHT22;23195;47.744;7.358;2022-08-19T15:56:37;23.70;99.90
37310;DHT22;23195;47.744;7.358;2022-08-19T15:59:22;23.40;99.90
37310;DHT22;23195;47.744;7.358;2022-08-19T16:02:07;23.80;99.90
37310;DHT22;23195;47.744;7.358;2022-08-19T16:04:52;23.70;99.90
37310;DHT22;23195;47.744;7.358;2022-08-19T16:07:36;23.80;99.90
37310;DHT22;23195;47.744;7.358;2022-08-19T16:10:04;23.70;99.90
37310;DHT22;23195;47.744;7.358;2022-08-19T16:12:33;23.70;99.90
37310;DHT22;23195;47.744;7.358;2022-08-19T16:14:59;23.60;99.90
37310;DHT22;23195;47.744;7.358;2022-08-19T16:17:25;23.50;99.90
37310;DHT22;23195;47.744;7.358;2022-08-19T16:19:54;23.50;99.90
37310;DHT22;23195;47.744;7.358;2022-08-19T16:22:28;23.30;99.90
37310;DHT22;23195;47.744;7.358;2022-08-19T16:24:54;23.20;99.90
37310;DHT22;23195;47.744;7.358;2022-08-19T16:27:23;23.20;99.90
37310;DHT22;23195;47.744;7.358;2022-08-19T16:29:52;23.20;99.90
37310;DHT22;23195;47.744;7.358;2022-08-19T16:32:19;23.10;99.90
37310;DHT22;23195;47.744;7.358;2022-08-19T16:34:45;23.20;99.90
37310;DHT22;23195;47.744;7.358;2022-08-19T16:37:12;23.10;99.90
37310;DHT22;23195;47.744;7.358;2022-08-19T16:39:38;23.10;99.90
37310;DHT22;23195;47.744;7.358;2022-08-19T16:42:08;23.30;99.90
37310;DHT22;23195;47.744;7.358;2022-08-19T16:44:44;23.30;99.90
37310;DHT22;23195;47.744;7.358;2022-08-19T16:47:14;23.30;99.90
37310;DHT22;23195;47.744;7.358;2022-08-19T16:49:42;23.20;99.90
37310;DHT22;23195;47.744;7.358;2022-08-19T16:52:09;23.30;99.90
37310;DHT22;23195;47.744;7.358;2022-08-19T16:54:38;23.30;99.90
37310;DHT22;23195;47.744;7.358;2022-08-19T16:57:04;23.30;99.90
37310;DHT22;23195;47.744;7.358;2022-08-19T16:59:32;23.20;99.90
37310;DHT22;23195;47.744;7.358;2022-08-19T17:02:01;23.30;99.90
37310;DHT22;23195;47.744;7.358;2022-08-19T17:04:27;23.10;99.90
37310;DHT22;23195;47.744;7.358;2022-08-19T17:06:53;23.10;99.90
37310;DHT22;23195;47.744;7.358;2022-08-19T17:09:19;23.10;99.90
37310;DHT22;23195;47.744;7.358;2022-08-19T17:11:45;23.10;99.90
37310;DHT22;23195;47.744;7.358;2022-08-19T17:14:12;23.10;99.90
37310;DHT22;23195;47.744;7.358;2022-08-19T17:16:38;23.20;99.90
37310;DHT22;23195;47.744;7.358;2022-08-19T17:19:06;23.30;99.90
37310;DHT22;23195;47.744;7.358;2022-08-19T17:21:40;23.40;99.90
37310;DHT22;23195;47.744;7.358;2022-08-19T17:24:07;23.40;99.90
37310;DHT22;23195;47.744;7.358;2022-08-19T17:26:33;23.50;99.90
37310;DHT22;23195;47.744;7.358;2022-08-19T17:28:59;23.60;99.90
37310;DHT22;23195;47.744;7.358;2022-08-19T17:31:32;23.50;99.90
37310;DHT22;23195;47.744;7.358;2022-08-19T17:33:58;23.40;99.90
37310;DHT22;23195;47.744;7.358;2022-08-19T17:36:26;23.50;99.90
37310;DHT22;23195;47.744;7.358;2022-08-19T17:38:53;23.40;99.90
37310;DHT22;23195;47.744;7.358;2022-08-19T17:41:22;23.40;99.90
37310;DHT22;23195;47.744;7.358;2022-08-19T17:43:49;23.50;99.90
37310;DHT22;23195;47.744;7.358;2022-08-19T17:46:15;23.60;99.90
37310;DHT22;23195;47.744;7.358;2022-08-19T17:48:46;23.50;99.90
37310;DHT22;23195;47.744;7.358;2022-08-19T17:51:24;23.50;99.90
37310;DHT22;23195;47.744;7.358;2022-08-19T17:53:53;23.50;99.90
37310;DHT22;23195;47.744;7.358;2022-08-19T17:56:20;23.50;99.90
37310;DHT22;23195;47.744;7.358;2022-08-19T17:58:50;23.40;99.90
37310;DHT22;23195;47.744;7.358;2022-08-19T18:01:20;23.20;99.90
37310;DHT22;23195;47.744;7.358;2022-08-19T18:03:46;23.10;99.90
37310;DHT22;23195;47.744;7.358;2022-08-19T18:06:16;22.80;99.90
37310;DHT22;23195;47.744;7.358;2022-08-19T18:08:45;22.80;99.90
37310;DHT22;23195;47.744;7.358;2022-08-19T18:11:14;22.60;99.90
37310;DHT22;23195;47.744;7.358;2022-08-19T18:13:47;22.50;99.90
37310;DHT22;23195;47.744;7.358;2022-08-19T18:16:13;22.30;99.90
37310;DHT22;23195;47.744;7.358;2022-08-19T18:18:41;22.10;99.90
37310;DHT22;23195;47.744;7.358;2022-08-19T18:21:09;22.00;99.90
37310;DHT22;23195;47.744;7.358;2022-08-19T18:23:35;21.80;99.90
37310;DHT22;23195;47.744;7.358;2022-08-19T18:26:01;21.70;99.90
37310;DHT22;23195;47.744;7.358;2022-08-19T18:28:31;21.60;99.90
37310;DHT22;23195;47.744;7.358;2022-08-19T18:30:57;21.50;99.90
37310;DHT22;23195;47.744;7.358;2022-08-19T18:33:27;21.40;99.90
37310;DHT22;23195;47.744;7.358;2022-08-19T18:36:25;21.20;99.90
37310;DHT22;23195;47.744;7.358;2022-08-19T18:38:53;20.90;99.90
37310;DHT22;23195;47.744;7.358;2022-08-19T18:41:37;21.00;99.90
37310;DHT22;23195;47.744;7.358;2022-08-19T18:44:23;20.90;99.90
37310;DHT22;23195;47.744;7.358;2022-08-19T18:47:08;20.40;99.90
37310;DHT22;23195;47.744;7.358;2022-08-19T18:49:52;20.80;99.90
37310;DHT22;23195;47.744;7.358;2022-08-19T18:52:18;20.50;99.90
37310;DHT22;23195;47.744;7.358;2022-08-19T18:54:49;20.10;99.90
37310;DHT22;23195;47.744;7.358;2022-08-19T18:57:15;20.30;99.90
37310;DHT22;23195;47.744;7.358;2022-08-19T18:59:49;20.20;99.90
37310;DHT22;23195;47.744;7.358;2022-08-19T19:02:15;20.20;99.90
37310;DHT22;23195;47.744;7.358;2022-08-19T19:04:43;20.00;99.90
37310;DHT22;23195;47.744;7.358;2022-08-19T19:07:11;20.00;99.90
37310;DHT22;23195;47.744;7.358;2022-08-19T19:09:40;20.00;99.90
37310;DHT22;23195;47.744;7.358;2022-08-19T19:12:12;19.90;99.90
37310;DHT22;23195;47.744;7.358;2022-08-19T19:14:40;19.80;99.90
37310;DHT22;23195;47.744;7.358;2022-08-19T19:17:12;19.80;99.90
37310;DHT22;23195;47.744;7.358;2022-08-19T19:19:40;19.80;99.90
37310;DHT22;23195;47.744;7.358;2022-08-19T19:22:09;19.70;99.90
37310;DHT22;23195;47.744;7.358;2022-08-19T19:24:37;19.60;99.90
37310;DHT22;23195;47.744;7.358;2022-08-19T19:27:12;19.60;99.90
37310;DHT22;23195;47.744;7.358;2022-08-19T19:29:40;19.50;99.90
37310;DHT22;23195;47.744;7.358;2022-08-19T19:32:09;19.70;99.90
37310;DHT22;23195;47.744;7.358;2022-08-19T19:34:39;19.30;99.90
37310;DHT22;23195;47.744;7.358;2022-08-19T19:37:05;19.30;99.90
37310;DHT22;23195;47.744;7.358;2022-08-19T19:39:30;19.30;99.90
37310;DHT22;23195;47.744;7.358;2022-08-19T19:41:56;19.30;99.90
37310;DHT22;23195;47.744;7.358;2022-08-19T19:44:25;19.20;99.90
37310;DHT22;23195;47.744;7.358;2022-08-19T19:46:51;19.30;99.90
37310;DHT22;23195;47.744;7.358;2022-08-19T19:49:20;19.20;99.90
37310;DHT22;23195;47.744;7.358;2022-08-19T19:51:46;19.20;99.90
37310;DHT22;23195;47.744;7.358;2022-08-19T19:54:12;19.30;99.90
37310;DHT22;23195;47.744;7.358;2022-08-19T19:56:40;19.30;99.90
37310;DHT22;23195;47.744;7.358;2022-08-19T19:59:09;19.40;99.90
37310;DHT22;23195;47.744;7.358;2022-08-19T20:01:35;19.50;99.90
37310;DHT22;23195;47.744;7.358;2022-08-19T20:04:01;19.40;99.90
37310;DHT22;23195;47.744;7.358;2022-08-19T20:06:28;19.40;99.90
37310;DHT22;23195;47.744;7.358;2022-08-19T20:08:54;19.50;99.90
37310;DHT22;23195;47.744;7.358;2022-08-19T20:14:02;19.30;99.90
37310;DHT22;23195;47.744;7.358;2022-08-19T20:16:30;19.40;99.90
37310;DHT22;23195;47.744;7.358;2022-08-19T20:18:57;19.30;99.90
37310;DHT22;23195;47.744;7.358;2022-08-19T20:21:28;19.30;99.90
37310;DHT22;23195;47.744;7.358;2022-08-19T20:23:59;19.40;99.90
37310;DHT22;23195;47.744;7.358;2022-08-19T20:26:26;19.30;99.90
37310;DHT22;23195;47.744;7.358;2022-08-19T20:28:53;19.30;99.90
37310;DHT22;23195;47.744;7.358;2022-08-19T20:31:19;19.30;99.90
37310;DHT22;23195;47.744;7.358;2022-08-19T20:33:48;19.30;99.90
37310;DHT22;23195;47.744;7.358;2022-08-19T20:36:15;19.20;99.90
37310;DHT22;23195;47.744;7.358;2022-08-19T20:38:41;19.10;99.90
37310;DHT22;23195;47.744;7.358;2022-08-19T20:41:07;19.10;99.90
37310;DHT22;23195;47.744;7.358;2022-08-19T20:43:36;19.00;99.90
37310;DHT22;23195;47.744;7.358;2022-08-19T20:46:03;19.00;99.90
37310;DHT22;23195;47.744;7.358;2022-08-19T20:48:30;18.90;99.90
37310;DHT22;23195;47.744;7.358;2022-08-19T20:50:56;19.00;99.90
37310;DHT22;23195;47.744;7.358;2022-08-19T20:53:25;19.00;99.90
37310;DHT22;23195;47.744;7.358;2022-08-19T20:55:53;19.00;99.90
37310;DHT22;23195;47.744;7.358;2022-08-19T20:58:23;19.10;99.90
37310;DHT22;23195;47.744;7.358;2022-08-19T21:00:52;19.10;99.90
37310;DHT22;23195;47.744;7.358;2022-08-19T21:03:24;19.10;99.90
37310;DHT22;23195;47.744;7.358;2022-08-19T21:05:57;19.20;99.90
37310;DHT22;23195;47.744;7.358;2022-08-19T21:08:24;19.20;99.90
37310;DHT22;23195;47.744;7.358;2022-08-19T21:10:51;19.20;99.90
37310;DHT22;23195;47.744;7.358;2022-08-19T21:13:18;19.20;99.90
37310;DHT22;23195;47.744;7.358;2022-08-19T21:15:45;17.50;99.90
37310;DHT22;23195;47.744;7.358;2022-08-19T21:18:15;19.10;99.90
37310;DHT22;23195;47.744;7.358;2022-08-19T21:20:42;19.10;99.90
37310;DHT22;23195;47.744;7.358;2022-08-19T21:23:12;19.10;99.90
